createdAt,value
2022-11-01T00:19:23.798Z,21.17
2022-11-01T00:39:31.467Z,20.11
2022-11-01T00:59:35.066Z,14.87
2022-11-01T01:19:40.584Z,18.84
2022-11-01T01:39:46.359Z,16.24
2022-11-01T01:59:52.559Z,16.84
2022-11-01T02:19:58.291Z,21.75
2022-11-01T02:40:04.556Z,13.46
2022-11-01T03:00:10.353Z,16.35
2022-11-01T03:20:16.105Z,13.89
2022-11-01T03:40:21.856Z,12.25
2022-11-01T04:01:23.780Z,18.69
2022-11-01T04:20:29.365Z,17.97
2022-11-01T04:40:35.141Z,15.13
2022-11-01T05:00:40.928Z,17.33
2022-11-01T05:20:46.676Z,17.89
2022-11-01T05:40:52.439Z,19.78
2022-11-01T06:00:58.639Z,16.78
2022-11-01T06:21:04.372Z,16.16
2022-11-01T06:41:10.181Z,12.16
2022-11-01T07:01:16.141Z,13.76
2022-11-01T07:21:21.711Z,10.68
2022-11-01T07:41:27.456Z,9.72
2022-11-01T08:01:33.420Z,9.23
2022-11-01T08:21:39.440Z,11.67
2022-11-01T08:41:45.176Z,11.78
2022-11-01T09:01:51.049Z,12.99
2022-11-01T09:21:57.118Z,14.11
2022-11-01T09:42:02.834Z,12.10
2022-11-01T10:02:10.032Z,12.01
2022-11-01T10:22:14.257Z,14.94
2022-11-01T10:42:20.453Z,16.54
2022-11-01T11:02:26.290Z,17.75
2022-11-01T11:22:31.959Z,16.50
2022-11-01T11:42:39.025Z,15.99
2022-11-01T12:02:44.823Z,19.23
2022-11-01T12:22:50.525Z,19.36
2022-11-01T12:42:56.236Z,19.32
2022-11-01T13:03:02.677Z,18.65
2022-11-01T13:23:07.621Z,18.83
2022-11-01T13:43:13.340Z,18.04
2022-11-01T14:03:19.140Z,17.34
2022-11-01T14:23:24.843Z,19.02
2022-11-01T14:43:30.552Z,20.94
2022-11-01T15:03:36.741Z,18.53
2022-11-01T15:23:42.942Z,19.79
2022-11-01T15:43:48.677Z,19.71
2022-11-01T16:03:54.406Z,18.97
2022-11-01T16:24:02.850Z,21.38
2022-11-01T16:44:05.440Z,19.42
2022-11-01T17:04:11.218Z,20.76
2022-11-01T17:24:17.451Z,24.84
2022-11-01T17:44:23.209Z,22.45
2022-11-01T18:04:34.060Z,22.61
2022-11-01T18:24:35.130Z,19.93
2022-11-01T18:44:40.896Z,20.09
2022-11-01T19:04:46.659Z,22.01
2022-11-01T19:24:52.850Z,18.26
2022-11-01T19:44:58.616Z,19.66
2022-11-01T20:05:11.204Z,19.63
2022-11-01T20:25:06.945Z,19.62
2022-11-01T20:45:12.692Z,17.85
2022-11-01T21:05:18.471Z,20.57
2022-11-01T21:25:24.210Z,18.46
2022-11-01T21:45:29.981Z,17.71
2022-11-01T22:05:36.348Z,17.78
2022-11-01T22:25:42.248Z,17.20
2022-11-01T22:45:48.476Z,14.08
2022-11-01T23:05:54.304Z,16.80
2022-11-01T23:26:00.485Z,15.28
2022-11-01T23:46:06.282Z,15.52
